createdAt,value
2019-03-13T00:00:41.823Z,7.50
2019-03-13T00:03:14.251Z,7.40
2019-03-13T00:05:43.475Z,7.30
2019-03-13T00:08:12.936Z,7.30
2019-03-13T00:10:42.111Z,7.20
2019-03-13T00:13:11.434Z,7.20
2019-03-13T00:15:41.187Z,7.10
2019-03-13T00:18:10.323Z,7.10
2019-03-13T00:20:39.555Z,7.00
2019-03-13T00:23:08.827Z,7.00
2019-03-13T00:25:38.285Z,6.90
2019-03-13T00:28:07.763Z,6.90
2019-03-13T00:30:37.471Z,6.80
2019-03-13T00:33:07.164Z,6.70
2019-03-13T00:35:36.861Z,6.70
2019-03-13T00:38:06.911Z,6.60
2019-03-13T00:40:36.323Z,6.60
2019-03-13T00:45:35.597Z,6.50
2019-03-13T00:48:05.013Z,6.50
2019-03-13T00:50:34.227Z,6.50
2019-03-13T00:53:03.734Z,6.50
2019-03-13T00:55:33.180Z,6.50
2019-03-13T00:58:02.423Z,6.40
2019-03-13T01:00:56.379Z,6.30
2019-03-13T01:03:47.875Z,6.30
2019-03-13T01:06:23.421Z,6.20
2019-03-13T01:08:52.887Z,6.20
2019-03-13T01:11:22.323Z,6.20
2019-03-13T01:13:51.870Z,6.20
2019-03-13T01:16:21.169Z,6.20
2019-03-13T01:18:50.275Z,6.20
2019-03-13T01:21:19.724Z,6.10
2019-03-13T01:23:48.999Z,6.00
2019-03-13T01:26:18.198Z,6.00
2019-03-13T01:28:47.671Z,5.90
2019-03-13T01:31:33.031Z,5.80
2019-03-13T01:34:19.526Z,5.70
2019-03-13T01:36:48.655Z,5.70
2019-03-13T01:39:18.247Z,5.80
2019-03-13T01:41:47.460Z,5.80
2019-03-13T01:44:16.691Z,5.90
2019-03-13T01:46:45.894Z,5.80
2019-03-13T01:49:15.117Z,5.80
2019-03-13T01:51:44.597Z,5.70
2019-03-13T01:54:13.827Z,5.60
2019-03-13T01:56:42.991Z,5.60
2019-03-13T01:59:12.501Z,5.60
2019-03-13T02:01:42.001Z,5.70
2019-03-13T02:04:11.477Z,5.70
2019-03-13T02:06:40.603Z,5.70
2019-03-13T02:09:09.814Z,5.80
2019-03-13T02:11:39.019Z,5.80
2019-03-13T02:14:08.282Z,5.80
2019-03-13T02:16:37.968Z,5.80
2019-03-13T02:19:07.318Z,5.70
2019-03-13T02:21:36.498Z,5.70
2019-03-13T02:24:05.988Z,5.60
2019-03-13T02:26:35.772Z,5.60
2019-03-13T02:29:05.223Z,5.60
2019-03-13T02:31:34.415Z,5.60
2019-03-13T02:34:03.654Z,5.60
2019-03-13T02:36:33.067Z,5.70
2019-03-13T02:39:02.307Z,5.70
2019-03-13T02:41:31.440Z,5.70
2019-03-13T02:44:00.576Z,5.60
2019-03-13T02:46:29.766Z,5.50
2019-03-13T02:48:59.220Z,5.50
2019-03-13T02:51:28.398Z,5.40
2019-03-13T02:53:57.865Z,5.40
2019-03-13T02:56:27.112Z,5.50
2019-03-13T02:58:56.305Z,5.50
2019-03-13T03:01:43.341Z,5.60
2019-03-13T03:04:12.613Z,5.60
2019-03-13T03:06:41.780Z,5.60
2019-03-13T03:09:11.414Z,5.50
2019-03-13T03:11:40.651Z,5.40
2019-03-13T03:14:09.798Z,5.40
2019-03-13T03:16:39.265Z,5.30
2019-03-13T03:19:08.544Z,5.30
2019-03-13T03:21:38.044Z,5.30
2019-03-13T03:24:07.312Z,5.20
2019-03-13T03:26:36.765Z,5.20
2019-03-13T03:29:05.932Z,5.10
2019-03-13T03:31:35.424Z,5.20
2019-03-13T03:34:05.087Z,5.40
2019-03-13T03:36:34.268Z,5.40
2019-03-13T03:39:04.915Z,5.50
2019-03-13T03:41:34.254Z,5.60
2019-03-13T03:44:03.876Z,5.70
2019-03-13T03:46:33.428Z,5.70
2019-03-13T03:49:02.897Z,5.70
2019-03-13T03:51:32.323Z,5.70
2019-03-13T03:54:01.462Z,5.60
2019-03-13T03:56:30.895Z,5.60
2019-03-13T03:59:00.013Z,5.50
2019-03-13T04:01:29.211Z,5.50
2019-03-13T04:03:58.696Z,5.50
2019-03-13T04:06:28.132Z,5.50
2019-03-13T04:08:57.331Z,5.60
2019-03-13T04:11:26.459Z,5.60
2019-03-13T04:13:55.668Z,5.60
2019-03-13T04:16:25.070Z,5.60
2019-03-13T04:18:54.334Z,5.60
2019-03-13T04:21:23.476Z,5.60
2019-03-13T04:23:52.703Z,5.70
2019-03-13T04:26:21.897Z,5.80
2019-03-13T04:28:51.403Z,5.80
2019-03-13T04:31:20.817Z,5.80
2019-03-13T04:33:50.103Z,5.80
2019-03-13T04:36:19.322Z,5.80
2019-03-13T04:38:48.478Z,5.80
2019-03-13T04:41:17.947Z,5.80
2019-03-13T04:43:47.193Z,5.90
2019-03-13T04:46:16.775Z,5.80
2019-03-13T04:48:45.947Z,5.70
2019-03-13T04:51:15.200Z,5.60
2019-03-13T04:53:44.422Z,5.40
2019-03-13T04:56:13.947Z,5.40
2019-03-13T04:58:43.447Z,5.40
2019-03-13T05:01:12.676Z,5.40
2019-03-13T05:03:42.119Z,5.30
2019-03-13T05:06:23.455Z,5.30
2019-03-13T05:09:06.414Z,5.30
2019-03-13T05:11:35.972Z,5.30
2019-03-13T05:14:05.256Z,5.30
2019-03-13T05:16:34.416Z,5.20
2019-03-13T05:19:03.571Z,5.10
2019-03-13T05:21:32.920Z,5.10
2019-03-13T05:24:02.161Z,5.00
2019-03-13T05:26:32.201Z,5.00
2019-03-13T05:29:01.330Z,4.90
2019-03-13T05:31:30.958Z,4.90
2019-03-13T05:34:00.248Z,4.90
2019-03-13T05:36:33.004Z,4.80
2019-03-13T05:39:07.108Z,4.80
2019-03-13T05:41:36.578Z,4.90
2019-03-13T05:44:05.883Z,4.90
2019-03-13T05:46:35.248Z,5.00
2019-03-13T05:49:04.582Z,5.00
2019-03-13T05:51:33.739Z,5.10
2019-03-13T05:54:04.489Z,5.30
2019-03-13T05:56:36.215Z,5.40
2019-03-13T05:59:05.780Z,5.50
2019-03-13T06:01:36.418Z,5.50
2019-03-13T06:04:05.626Z,5.60
2019-03-13T06:06:34.816Z,5.70
2019-03-13T06:09:05.705Z,5.80
2019-03-13T06:11:35.154Z,5.80
2019-03-13T06:14:04.275Z,5.80
2019-03-13T06:16:33.454Z,5.90
2019-03-13T06:19:02.654Z,5.90
2019-03-13T06:21:32.250Z,5.90
2019-03-13T06:24:01.558Z,6.00
2019-03-13T06:26:31.129Z,6.00
2019-03-13T06:29:00.439Z,6.10
2019-03-13T06:31:29.668Z,6.10
2019-03-13T06:33:58.910Z,6.10
2019-03-13T06:36:28.062Z,6.10
2019-03-13T06:38:57.499Z,6.20
2019-03-13T06:41:26.711Z,6.20
2019-03-13T06:43:56.160Z,6.30
2019-03-13T06:46:25.419Z,6.30
2019-03-13T06:48:56.631Z,6.40
2019-03-13T06:51:27.297Z,6.50
2019-03-13T06:53:56.722Z,6.50
2019-03-13T06:56:25.941Z,6.60
2019-03-13T06:59:17.862Z,6.70
2019-03-13T07:02:06.060Z,6.70
2019-03-13T07:04:54.242Z,6.70
2019-03-13T07:07:48.690Z,6.80
2019-03-13T07:13:14.470Z,7.00
2019-03-13T07:15:51.943Z,7.00
2019-03-13T07:18:35.787Z,6.90
2019-03-13T07:21:13.504Z,6.90
2019-03-13T07:23:58.056Z,6.90
2019-03-13T07:26:46.237Z,7.00
2019-03-13T07:29:33.310Z,7.10
2019-03-13T07:32:10.625Z,7.20
2019-03-13T07:34:53.235Z,7.20
2019-03-13T07:37:35.903Z,7.10
2019-03-13T07:40:22.923Z,6.90
2019-03-13T07:43:17.647Z,6.70
2019-03-13T07:46:00.078Z,6.80
2019-03-13T07:48:51.348Z,6.90
2019-03-13T07:51:35.583Z,6.90
2019-03-13T07:54:27.039Z,6.80
2019-03-13T07:57:07.372Z,6.80
2019-03-13T07:59:58.560Z,6.90
2019-03-13T08:02:46.718Z,7.00
2019-03-13T08:05:37.852Z,7.00
2019-03-13T08:08:35.100Z,7.00
2019-03-13T08:11:25.770Z,7.00
2019-03-13T08:14:26.175Z,7.20
2019-03-13T08:17:17.109Z,7.10
2019-03-13T08:20:04.235Z,7.10
2019-03-13T08:22:58.622Z,7.30
2019-03-13T08:25:39.877Z,7.60
2019-03-13T08:28:30.948Z,7.70
2019-03-13T08:31:28.840Z,7.80
2019-03-13T08:34:19.831Z,7.70
2019-03-13T08:37:17.102Z,7.60
2019-03-13T08:40:00.496Z,7.50
2019-03-13T08:42:41.858Z,7.60
2019-03-13T08:45:34.472Z,7.80
2019-03-13T08:48:22.693Z,7.90
2019-03-13T08:50:59.837Z,7.90
2019-03-13T08:54:03.036Z,7.50
2019-03-13T08:56:45.179Z,7.00
2019-03-13T08:59:33.202Z,6.90
2019-03-13T09:02:06.716Z,6.90
2019-03-13T09:04:57.576Z,7.00
2019-03-13T09:07:55.060Z,7.10
2019-03-13T09:10:42.541Z,7.20
2019-03-13T09:13:37.094Z,7.30
2019-03-13T09:16:19.851Z,7.30
2019-03-13T09:18:58.535Z,7.30
2019-03-13T09:22:02.257Z,7.30
2019-03-13T09:24:43.229Z,7.40
2019-03-13T09:27:47.127Z,7.50
2019-03-13T09:30:34.186Z,7.60
2019-03-13T09:33:18.835Z,7.80
2019-03-13T09:36:12.336Z,7.90
2019-03-13T09:39:00.011Z,8.00
2019-03-13T09:41:45.164Z,8.00
2019-03-13T09:44:48.434Z,8.00
2019-03-13T09:47:36.620Z,8.10
2019-03-13T09:53:07.254Z,8.50
2019-03-13T09:56:11.555Z,8.30
2019-03-13T09:58:58.617Z,8.30
2019-03-13T10:01:47.607Z,8.40
2019-03-13T10:04:41.583Z,8.40
2019-03-13T10:10:06.448Z,8.40
2019-03-13T10:12:54.628Z,8.40
2019-03-13T10:15:35.713Z,8.30
2019-03-13T10:18:14.536Z,8.50
2019-03-13T10:21:17.756Z,8.60
2019-03-13T10:23:55.377Z,8.50
2019-03-13T10:26:45.157Z,8.40
2019-03-13T10:29:45.704Z,8.60
2019-03-13T10:32:36.933Z,8.60
2019-03-13T10:35:25.366Z,8.70
2019-03-13T10:38:14.463Z,8.80
2019-03-13T10:40:59.498Z,8.90
2019-03-13T10:43:39.145Z,9.10
2019-03-13T10:46:16.962Z,9.30
2019-03-13T10:48:53.516Z,9.50
2019-03-13T10:51:50.768Z,9.50
2019-03-13T10:54:31.344Z,9.30
2019-03-13T10:57:25.176Z,9.40
2019-03-13T11:00:14.856Z,9.30
2019-03-13T11:03:03.054Z,9.20
2019-03-13T11:06:00.207Z,9.10
2019-03-13T11:09:03.903Z,9.00
2019-03-13T11:11:38.927Z,8.70
2019-03-13T11:14:16.150Z,9.00
2019-03-13T11:17:01.547Z,8.90
2019-03-13T11:19:36.839Z,9.00
2019-03-13T11:22:25.559Z,9.10
2019-03-13T11:25:16.778Z,9.30
2019-03-13T11:28:08.378Z,9.50
2019-03-13T11:31:02.724Z,9.60
2019-03-13T11:34:09.039Z,9.90
2019-03-13T11:37:00.365Z,9.90
2019-03-13T11:39:51.119Z,9.50
2019-03-13T11:42:42.420Z,9.20
2019-03-13T11:45:31.801Z,9.10
2019-03-13T11:48:21.578Z,9.10
2019-03-13T11:51:03.774Z,9.10
2019-03-13T11:54:01.255Z,9.20
2019-03-13T11:56:56.775Z,9.10
2019-03-13T11:59:48.385Z,9.10
2019-03-13T12:02:48.814Z,9.20
2019-03-13T12:05:27.377Z,9.40
2019-03-13T12:08:24.977Z,9.90
2019-03-13T12:11:07.382Z,10.20
2019-03-13T12:13:58.592Z,11.60
2019-03-13T12:16:37.858Z,12.70
2019-03-13T12:19:30.871Z,12.70
2019-03-13T12:22:19.059Z,12.10
2019-03-13T12:25:00.390Z,11.70
2019-03-13T12:27:51.646Z,11.00
2019-03-13T12:30:51.858Z,10.70
2019-03-13T12:33:39.362Z,10.60
2019-03-13T12:36:25.820Z,11.30
2019-03-13T12:39:08.875Z,11.10
2019-03-13T12:41:59.446Z,10.40
2019-03-13T12:44:35.145Z,9.80
2019-03-13T12:47:23.687Z,9.60
2019-03-13T12:50:13.611Z,9.40
2019-03-13T12:53:00.894Z,9.50
2019-03-13T12:55:58.391Z,9.60
2019-03-13T12:58:35.995Z,9.90
2019-03-13T13:01:17.875Z,10.20
2019-03-13T13:04:18.149Z,10.60
2019-03-13T13:06:54.107Z,10.60
2019-03-13T13:09:42.632Z,10.80
2019-03-13T13:12:29.660Z,11.00
2019-03-13T13:15:18.181Z,12.00
2019-03-13T13:18:09.102Z,12.50
2019-03-13T13:20:38.563Z,13.00
2019-03-13T13:23:07.727Z,12.90
2019-03-13T13:25:37.434Z,13.70
2019-03-13T13:28:06.952Z,14.70
2019-03-13T13:30:36.504Z,15.00
2019-03-13T13:33:05.750Z,15.30
2019-03-13T13:35:35.235Z,16.80
2019-03-13T13:38:04.752Z,17.40
2019-03-13T13:40:34.262Z,15.30
2019-03-13T13:43:03.535Z,13.50
2019-03-13T13:46:02.913Z,12.20
2019-03-13T13:48:32.021Z,11.30
2019-03-13T13:51:01.230Z,10.60
2019-03-13T13:53:30.444Z,10.10
2019-03-13T13:55:59.675Z,9.70
2019-03-13T13:58:28.845Z,9.40
2019-03-13T14:00:58.008Z,9.30
2019-03-13T14:03:27.289Z,9.10
2019-03-13T14:05:56.498Z,9.10
2019-03-13T14:08:25.671Z,9.10
2019-03-13T14:10:54.876Z,9.00
2019-03-13T14:13:24.043Z,8.90
2019-03-13T14:15:53.251Z,8.80
2019-03-13T14:18:22.742Z,8.70
2019-03-13T14:20:52.175Z,8.60
2019-03-13T14:23:22.343Z,8.60
2019-03-13T14:25:51.521Z,8.70
2019-03-13T14:28:20.718Z,8.70
2019-03-13T14:30:50.253Z,8.80
2019-03-13T14:33:19.479Z,8.70
2019-03-13T14:35:48.564Z,8.70
2019-03-13T14:38:17.791Z,8.70
2019-03-13T14:40:47.387Z,8.70
2019-03-13T14:43:16.721Z,8.70
2019-03-13T14:45:46.386Z,8.90
2019-03-13T14:48:15.574Z,8.90
2019-03-13T14:50:45.435Z,8.90
2019-03-13T14:53:14.702Z,9.00
2019-03-13T14:55:44.094Z,9.10
2019-03-13T14:58:13.537Z,9.20
2019-03-13T15:00:42.868Z,9.30
2019-03-13T15:03:12.675Z,9.30
2019-03-13T15:05:42.102Z,9.30
2019-03-13T15:08:11.964Z,9.30
2019-03-13T15:13:10.037Z,9.30
2019-03-13T15:15:39.691Z,9.30
2019-03-13T15:18:09.458Z,9.00
2019-03-13T15:20:38.818Z,8.80
2019-03-13T15:23:10.246Z,8.70
2019-03-13T15:25:39.415Z,8.70
2019-03-13T15:28:08.865Z,8.90
2019-03-13T15:30:38.057Z,8.90
2019-03-13T15:33:09.125Z,8.90
2019-03-13T15:35:38.425Z,8.70
2019-03-13T15:38:07.621Z,8.70
2019-03-13T15:40:36.942Z,8.70
2019-03-13T15:43:06.202Z,8.90
2019-03-13T15:45:35.435Z,9.10
2019-03-13T15:48:04.847Z,9.20
2019-03-13T15:50:34.232Z,9.20
2019-03-13T15:53:03.497Z,9.00
2019-03-13T15:55:32.786Z,8.80
2019-03-13T15:58:02.212Z,8.50
2019-03-13T16:00:31.904Z,8.20
2019-03-13T16:03:01.588Z,7.80
2019-03-13T16:05:31.234Z,7.70
2019-03-13T16:08:00.420Z,7.60
2019-03-13T16:10:29.649Z,7.70
2019-03-13T16:13:01.649Z,7.70
2019-03-13T16:15:36.631Z,7.70
2019-03-13T16:18:06.606Z,7.70
2019-03-13T16:20:37.232Z,7.70
2019-03-13T16:23:07.064Z,7.60
2019-03-13T16:25:36.501Z,7.60
2019-03-13T16:28:05.683Z,7.50
2019-03-13T16:30:38.705Z,7.50
2019-03-13T16:33:08.093Z,7.50
2019-03-13T16:35:39.453Z,7.60
2019-03-13T16:38:08.966Z,7.60
2019-03-13T16:40:38.282Z,7.60
2019-03-13T16:43:07.817Z,7.60
2019-03-13T16:45:37.395Z,7.50
2019-03-13T16:48:06.651Z,7.30
2019-03-13T16:50:36.010Z,7.10
2019-03-13T16:53:05.404Z,7.00
2019-03-13T16:55:34.646Z,7.00
2019-03-13T16:58:04.196Z,6.90
2019-03-13T17:00:33.594Z,6.90
2019-03-13T17:03:02.852Z,6.90
2019-03-13T17:05:32.659Z,6.80
2019-03-13T17:08:01.948Z,6.80
2019-03-13T17:10:31.208Z,6.70
2019-03-13T17:13:00.344Z,6.70
2019-03-13T17:15:29.875Z,6.70
2019-03-13T17:17:59.071Z,6.70
2019-03-13T17:20:28.310Z,6.70
2019-03-13T17:22:58.216Z,6.70
2019-03-13T17:25:27.374Z,6.60
2019-03-13T17:27:57.128Z,6.70
2019-03-13T17:30:26.801Z,6.70
2019-03-13T17:32:56.404Z,6.70
2019-03-13T17:35:28.207Z,6.80
2019-03-13T17:37:57.882Z,6.80
2019-03-13T17:40:31.796Z,6.70
2019-03-13T17:43:01.150Z,6.70
2019-03-13T17:45:30.570Z,6.70
2019-03-13T17:48:00.081Z,6.70
2019-03-13T17:50:29.239Z,6.70
2019-03-13T17:52:58.719Z,6.70
2019-03-13T17:55:28.334Z,6.70
2019-03-13T17:57:58.545Z,6.70
2019-03-13T18:00:31.594Z,6.80
2019-03-13T18:03:00.782Z,6.90
2019-03-13T18:05:30.051Z,7.00
2019-03-13T18:07:59.468Z,6.90
2019-03-13T18:10:28.829Z,6.80
2019-03-13T18:12:57.954Z,6.70
2019-03-13T18:15:27.076Z,6.70
2019-03-13T18:20:25.122Z,6.70
2019-03-13T18:22:54.419Z,6.60
2019-03-13T18:25:26.596Z,6.40
2019-03-13T18:27:55.835Z,6.40
2019-03-13T18:30:25.166Z,6.30
2019-03-13T18:32:54.299Z,6.30
2019-03-13T18:35:26.710Z,6.20
2019-03-13T18:37:55.861Z,6.10
2019-03-13T18:40:25.509Z,5.90
2019-03-13T18:42:55.290Z,5.80
2019-03-13T18:45:25.652Z,5.70
2019-03-13T18:47:54.919Z,5.60
2019-03-13T18:50:24.521Z,5.60
2019-03-13T18:52:53.966Z,5.60
2019-03-13T18:55:25.860Z,5.60
2019-03-13T18:57:55.087Z,5.50
2019-03-13T19:00:36.360Z,5.50
2019-03-13T19:03:07.569Z,5.40
2019-03-13T19:05:37.188Z,5.40
2019-03-13T19:08:06.950Z,5.40
2019-03-13T19:10:36.163Z,5.40
2019-03-13T19:13:05.651Z,5.40
2019-03-13T19:15:35.049Z,5.40
2019-03-13T19:18:04.416Z,5.40
2019-03-13T19:20:34.030Z,5.30
2019-03-13T19:23:03.214Z,5.30
2019-03-13T19:25:33.123Z,5.30
2019-03-13T19:28:02.272Z,5.20
2019-03-13T19:30:31.673Z,5.20
2019-03-13T19:33:01.249Z,5.20
2019-03-13T19:35:30.442Z,5.20
2019-03-13T19:38:00.266Z,5.20
2019-03-13T19:40:29.585Z,5.20
2019-03-13T19:42:58.847Z,5.20
2019-03-13T19:45:30.765Z,5.20
2019-03-13T19:48:01.475Z,5.20
2019-03-13T19:50:31.272Z,5.20
2019-03-13T19:53:00.447Z,5.20
2019-03-13T19:55:29.699Z,5.20
2019-03-13T19:57:59.354Z,5.30
2019-03-13T20:00:28.692Z,5.30
2019-03-13T20:03:00.297Z,5.30
2019-03-13T20:05:29.195Z,5.40
2019-03-13T20:07:58.812Z,5.40
2019-03-13T20:10:28.371Z,5.40
2019-03-13T20:12:57.654Z,5.30
2019-03-13T20:15:26.961Z,5.30
2019-03-13T20:17:56.556Z,5.30
2019-03-13T20:20:25.749Z,5.30
2019-03-13T20:22:57.163Z,5.30
2019-03-13T20:25:26.962Z,5.30
2019-03-13T20:27:56.589Z,5.30
2019-03-13T20:30:28.222Z,5.30
2019-03-13T20:32:58.543Z,5.30
2019-03-13T20:35:27.808Z,5.30
2019-03-13T20:37:57.066Z,5.30
2019-03-13T20:40:26.282Z,5.30
2019-03-13T20:42:55.580Z,5.40
2019-03-13T20:45:25.306Z,5.40
2019-03-13T20:47:55.585Z,5.50
2019-03-13T20:50:36.117Z,5.50
2019-03-13T20:52:56.188Z,5.50
2019-03-13T20:55:26.801Z,5.40
2019-03-13T20:57:56.646Z,5.30
2019-03-13T21:00:25.858Z,5.30
2019-03-13T21:02:55.656Z,5.30
2019-03-13T21:05:27.388Z,5.40
2019-03-13T21:07:57.783Z,5.40
2019-03-13T21:10:27.142Z,5.40
2019-03-13T21:12:56.652Z,5.40
2019-03-13T21:15:28.769Z,5.40
2019-03-13T21:17:58.023Z,5.30
2019-03-13T21:20:27.395Z,5.30
2019-03-13T21:22:58.309Z,5.20
2019-03-13T21:25:27.885Z,5.20
2019-03-13T21:27:57.096Z,5.10
2019-03-13T21:30:26.569Z,5.00
2019-03-13T21:32:55.843Z,5.00
2019-03-13T21:35:25.355Z,5.00
2019-03-13T21:37:54.511Z,5.00
2019-03-13T21:40:23.854Z,5.00
2019-03-13T21:42:54.915Z,5.00
2019-03-13T21:45:24.166Z,4.90
2019-03-13T21:47:53.594Z,4.90
2019-03-13T21:50:22.908Z,4.80
2019-03-13T21:52:52.308Z,4.80
2019-03-13T21:55:22.010Z,4.70
2019-03-13T21:57:52.564Z,4.80
2019-03-13T22:00:23.588Z,4.80
2019-03-13T22:02:52.980Z,4.70
2019-03-13T22:05:26.092Z,4.80
2019-03-13T22:07:54.011Z,4.90
2019-03-13T22:10:23.542Z,5.00
2019-03-13T22:12:53.502Z,5.00
2019-03-13T22:15:23.127Z,5.00
2019-03-13T22:17:52.375Z,5.00
2019-03-13T22:20:21.749Z,5.10
2019-03-13T22:22:51.030Z,5.20
2019-03-13T22:25:25.578Z,5.20
2019-03-13T22:28:00.104Z,5.30
2019-03-13T22:30:32.710Z,5.30
2019-03-13T22:33:04.851Z,5.30
2019-03-13T22:35:34.564Z,5.30
2019-03-13T22:38:04.269Z,5.30
2019-03-13T22:40:33.435Z,5.40
2019-03-13T22:43:03.340Z,5.40
2019-03-13T22:45:32.494Z,5.40
2019-03-13T22:48:01.726Z,5.60
2019-03-13T22:50:31.129Z,5.60
2019-03-13T22:53:01.369Z,5.60
2019-03-13T22:55:30.666Z,5.60
2019-03-13T22:58:01.599Z,5.50
2019-03-13T23:00:53.476Z,5.40
2019-03-13T23:03:23.282Z,5.30
2019-03-13T23:05:52.558Z,5.20
2019-03-13T23:08:22.500Z,5.20
2019-03-13T23:10:51.790Z,5.20
2019-03-13T23:13:20.937Z,5.30
2019-03-13T23:15:50.227Z,5.30
2019-03-13T23:18:19.362Z,5.30
2019-03-13T23:20:48.852Z,5.40
2019-03-13T23:23:18.416Z,5.30
2019-03-13T23:25:47.999Z,5.20
2019-03-13T23:28:17.638Z,5.20
2019-03-13T23:30:46.838Z,5.20
2019-03-13T23:33:16.419Z,5.20
2019-03-13T23:35:48.255Z,5.20
2019-03-13T23:38:17.825Z,5.10
2019-03-13T23:40:47.017Z,5.00
2019-03-13T23:43:16.292Z,5.00
2019-03-13T23:45:45.883Z,4.90
2019-03-13T23:48:16.276Z,4.90
2019-03-13T23:50:45.503Z,4.90
2019-03-13T23:53:14.700Z,4.90
2019-03-13T23:55:43.843Z,5.00
2019-03-13T23:58:13.014Z,5.00
